KRWL

Rawlins Municipal / Harvey Field Airport

Rawlins, Wyoming, USA
METAR KRWL 151153Z AUTO 22007KT 190V260 10SM CLR 00/M08 A3025 RMK AO2 SLP237 T00001083 10028 20000 55001
Observed Flight Rules
Nov-15 @ 11:53 UTC (49 minutes ago) Visual Flight Rules
Wind Visibility Clouds
220° at 7 knots 10 miles
  • Clear skies
Temperatures Readings
Current 0°C / 32°F
Dewpoint -8°C / 18°F
Humidity 55%
Altimeter 30.25" Hg
Pressure 1023.7 hPa
Elevation 2077
METAR KRWL 151153Z AUTO 22007KT 190V260 10SM CLR 00/M08 A3025 RMK AO2 SLP237 T00001083 10028 20000 55001
Observed Flight Rules
Nov-15 @ 11:53 UTC
(49 minutes ago)
VFR
Wind Visibility
220° at 7 knots 10 miles
Clouds
  • Clear skies
Temperature Dewpoint
0°C / 32°F -8°C / 18°F
Humidity Altimeter Pressure
55% 30.25" Hg 1023.7 hPa